sensor_id;sensor_type;location;lat;lon;timestamp;temperature;humidity
22813;DHT22;11573;51.334;3.244;2023-06-01T00:02:25;12.80;99.90
22813;DHT22;11573;51.334;3.244;2023-06-01T00:04:53;12.80;99.90
22813;DHT22;11573;51.334;3.244;2023-06-01T00:07:20;12.80;99.90
22813;DHT22;11573;51.334;3.244;2023-06-01T00:09:47;12.80;99.90
22813;DHT22;11573;51.334;3.244;2023-06-01T00:12:14;12.80;99.90
22813;DHT22;11573;51.334;3.244;2023-06-01T00:14:42;12.90;99.90
22813;DHT22;11573;51.334;3.244;2023-06-01T00:17:09;12.90;99.90
22813;DHT22;11573;51.334;3.244;2023-06-01T00:19:36;12.90;99.90
22813;DHT22;11573;51.334;3.244;2023-06-01T00:22:07;12.90;99.90
22813;DHT22;11573;51.334;3.244;2023-06-01T00:24:34;12.90;99.90
22813;DHT22;11573;51.334;3.244;2023-06-01T00:27:01;12.90;99.90
22813;DHT22;11573;51.334;3.244;2023-06-01T00:29:29;12.90;99.90
22813;DHT22;11573;51.334;3.244;2023-06-01T00:31:56;12.90;99.90
22813;DHT22;11573;51.334;3.244;2023-06-01T00:34:23;12.90;99.90
22813;DHT22;11573;51.334;3.244;2023-06-01T00:36:51;12.80;99.90
22813;DHT22;11573;51.334;3.244;2023-06-01T00:39:18;12.80;99.90
22813;DHT22;11573;51.334;3.244;2023-06-01T00:41:45;12.80;99.90
22813;DHT22;11573;51.334;3.244;2023-06-01T00:44:12;12.80;99.90
22813;DHT22;11573;51.334;3.244;2023-06-01T00:46:39;12.80;99.90
22813;DHT22;11573;51.334;3.244;2023-06-01T00:49:07;12.80;99.90
22813;DHT22;11573;51.334;3.244;2023-06-01T00:51:34;12.80;99.90
22813;DHT22;11573;51.334;3.244;2023-06-01T00:54:02;12.80;99.90
22813;DHT22;11573;51.334;3.244;2023-06-01T00:56:30;12.80;99.90
22813;DHT22;11573;51.334;3.244;2023-06-01T00:58:59;12.80;99.90
22813;DHT22;11573;51.334;3.244;2023-06-01T01:01:26;12.80;99.90
22813;DHT22;11573;51.334;3.244;2023-06-01T01:03:53;12.80;99.90
22813;DHT22;11573;51.334;3.244;2023-06-01T01:07:01;12.80;99.90
22813;DHT22;11573;51.334;3.244;2023-06-01T01:12:23;12.80;99.90
22813;DHT22;11573;51.334;3.244;2023-06-01T01:15:01;12.80;99.90
22813;DHT22;11573;51.334;3.244;2023-06-01T01:20:09;12.70;99.90
22813;DHT22;11573;51.334;3.244;2023-06-01T01:28:06;12.70;99.90
22813;DHT22;11573;51.334;3.244;2023-06-01T01:30:38;12.70;99.90
22813;DHT22;11573;51.334;3.244;2023-06-01T01:33:07;12.60;99.90
22813;DHT22;11573;51.334;3.244;2023-06-01T01:35:34;12.60;99.90
22813;DHT22;11573;51.334;3.244;2023-06-01T01:38:03;12.60;99.90
22813;DHT22;11573;51.334;3.244;2023-06-01T01:40:30;12.60;99.90
22813;DHT22;11573;51.334;3.244;2023-06-01T01:42:57;12.50;99.90
22813;DHT22;11573;51.334;3.244;2023-06-01T01:45:25;12.50;99.90
22813;DHT22;11573;51.334;3.244;2023-06-01T01:50:29;12.50;99.90
22813;DHT22;11573;51.334;3.244;2023-06-01T01:53:00;12.50;99.90
22813;DHT22;11573;51.334;3.244;2023-06-01T01:55:27;12.50;99.90
22813;DHT22;11573;51.334;3.244;2023-06-01T01:57:56;12.40;99.90
22813;DHT22;11573;51.334;3.244;2023-06-01T02:00:26;12.50;99.90
22813;DHT22;11573;51.334;3.244;2023-06-01T02:02:54;12.40;99.90
22813;DHT22;11573;51.334;3.244;2023-06-01T02:05:21;12.40;99.90
22813;DHT22;11573;51.334;3.244;2023-06-01T02:07:48;12.40;99.90
22813;DHT22;11573;51.334;3.244;2023-06-01T02:10:15;12.40;99.90
22813;DHT22;11573;51.334;3.244;2023-06-01T02:12:42;12.40;99.90
22813;DHT22;11573;51.334;3.244;2023-06-01T02:15:10;12.40;99.90
22813;DHT22;11573;51.334;3.244;2023-06-01T02:17:38;12.40;99.90
22813;DHT22;11573;51.334;3.244;2023-06-01T02:20:05;12.40;99.90
22813;DHT22;11573;51.334;3.244;2023-06-01T02:22:32;12.40;99.90
22813;DHT22;11573;51.334;3.244;2023-06-01T02:25:00;12.50;99.90
22813;DHT22;11573;51.334;3.244;2023-06-01T02:27:31;12.50;99.90
22813;DHT22;11573;51.334;3.244;2023-06-01T02:29:58;12.40;99.90
22813;DHT22;11573;51.334;3.244;2023-06-01T02:32:25;12.40;99.90
22813;DHT22;11573;51.334;3.244;2023-06-01T02:34:54;12.30;99.90
22813;DHT22;11573;51.334;3.244;2023-06-01T02:37:22;12.40;99.90
22813;DHT22;11573;51.334;3.244;2023-06-01T02:39:49;12.30;99.90
22813;DHT22;11573;51.334;3.244;2023-06-01T02:42:16;12.30;99.90
22813;DHT22;11573;51.334;3.244;2023-06-01T02:44:43;12.30;99.90
22813;DHT22;11573;51.334;3.244;2023-06-01T02:47:10;12.30;99.90
22813;DHT22;11573;51.334;3.244;2023-06-01T02:49:37;12.30;99.90
22813;DHT22;11573;51.334;3.244;2023-06-01T02:52:04;12.30;99.90
22813;DHT22;11573;51.334;3.244;2023-06-01T02:54:32;12.30;99.90
22813;DHT22;11573;51.334;3.244;2023-06-01T02:57:08;12.20;99.90
22813;DHT22;11573;51.334;3.244;2023-06-01T02:59:42;12.20;99.90
22813;DHT22;11573;51.334;3.244;2023-06-01T03:02:08;12.20;99.90
22813;DHT22;11573;51.334;3.244;2023-06-01T03:04:36;12.20;99.90
22813;DHT22;11573;51.334;3.244;2023-06-01T03:07:03;12.20;99.90
22813;DHT22;11573;51.334;3.244;2023-06-01T03:09:44;12.20;99.90
22813;DHT22;11573;51.334;3.244;2023-06-01T03:12:32;12.20;99.90
22813;DHT22;11573;51.334;3.244;2023-06-01T03:14:59;12.20;99.90
22813;DHT22;11573;51.334;3.244;2023-06-01T03:17:26;12.20;99.90
22813;DHT22;11573;51.334;3.244;2023-06-01T03:19:54;12.20;99.90
22813;DHT22;11573;51.334;3.244;2023-06-01T03:22:22;12.20;99.90
22813;DHT22;11573;51.334;3.244;2023-06-01T03:24:49;12.20;99.90
22813;DHT22;11573;51.334;3.244;2023-06-01T03:27:20;12.10;99.90
22813;DHT22;11573;51.334;3.244;2023-06-01T03:29:47;12.20;99.90
22813;DHT22;11573;51.334;3.244;2023-06-01T03:32:14;12.20;99.90
22813;DHT22;11573;51.334;3.244;2023-06-01T03:34:42;12.20;99.90
22813;DHT22;11573;51.334;3.244;2023-06-01T03:37:09;12.20;99.90
22813;DHT22;11573;51.334;3.244;2023-06-01T03:39:37;12.10;99.90
22813;DHT22;11573;51.334;3.244;2023-06-01T03:42:08;12.20;99.90
22813;DHT22;11573;51.334;3.244;2023-06-01T03:44:38;12.20;99.90
22813;DHT22;11573;51.334;3.244;2023-06-01T03:47:07;12.10;99.90
22813;DHT22;11573;51.334;3.244;2023-06-01T03:49:34;12.30;99.90
22813;DHT22;11573;51.334;3.244;2023-06-01T03:52:05;12.30;99.90
22813;DHT22;11573;51.334;3.244;2023-06-01T03:54:32;12.20;99.90
22813;DHT22;11573;51.334;3.244;2023-06-01T03:57:01;12.20;99.90
22813;DHT22;11573;51.334;3.244;2023-06-01T03:59:28;12.10;99.90
22813;DHT22;11573;51.334;3.244;2023-06-01T04:01:55;12.10;99.90
22813;DHT22;11573;51.334;3.244;2023-06-01T04:04:25;12.00;99.90
22813;DHT22;11573;51.334;3.244;2023-06-01T04:06:54;12.00;99.90
22813;DHT22;11573;51.334;3.244;2023-06-01T04:09:28;12.00;99.90
22813;DHT22;11573;51.334;3.244;2023-06-01T04:11:55;12.00;99.90
22813;DHT22;11573;51.334;3.244;2023-06-01T04:14:23;12.10;99.90
22813;DHT22;11573;51.334;3.244;2023-06-01T04:16:50;12.20;99.90
22813;DHT22;11573;51.334;3.244;2023-06-01T04:19:17;12.20;99.90
22813;DHT22;11573;51.334;3.244;2023-06-01T04:21:56;12.20;99.90
22813;DHT22;11573;51.334;3.244;2023-06-01T04:24:23;12.30;99.90
22813;DHT22;11573;51.334;3.244;2023-06-01T04:26:51;12.30;99.90
22813;DHT22;11573;51.334;3.244;2023-06-01T04:29:18;12.30;99.90
22813;DHT22;11573;51.334;3.244;2023-06-01T04:31:48;12.30;99.90
22813;DHT22;11573;51.334;3.244;2023-06-01T04:34:15;12.30;99.90
22813;DHT22;11573;51.334;3.244;2023-06-01T04:36:42;12.30;99.90
22813;DHT22;11573;51.334;3.244;2023-06-01T04:39:09;12.30;99.90
22813;DHT22;11573;51.334;3.244;2023-06-01T04:41:37;12.30;99.90
22813;DHT22;11573;51.334;3.244;2023-06-01T04:44:05;12.40;99.90
22813;DHT22;11573;51.334;3.244;2023-06-01T04:46:33;12.40;99.90
22813;DHT22;11573;51.334;3.244;2023-06-01T04:49:02;12.40;99.90
22813;DHT22;11573;51.334;3.244;2023-06-01T04:51:29;12.40;99.90
22813;DHT22;11573;51.334;3.244;2023-06-01T04:53:59;12.50;99.90
22813;DHT22;11573;51.334;3.244;2023-06-01T04:56:26;12.50;99.90
22813;DHT22;11573;51.334;3.244;2023-06-01T04:58:56;12.50;99.90
22813;DHT22;11573;51.334;3.244;2023-06-01T05:01:26;12.50;99.90
22813;DHT22;11573;51.334;3.244;2023-06-01T05:03:56;12.50;99.90
22813;DHT22;11573;51.334;3.244;2023-06-01T05:06:25;12.50;99.90
22813;DHT22;11573;51.334;3.244;2023-06-01T05:08:52;12.50;99.90
22813;DHT22;11573;51.334;3.244;2023-06-01T05:11:21;12.60;99.90
22813;DHT22;11573;51.334;3.244;2023-06-01T05:13:49;12.70;99.90
22813;DHT22;11573;51.334;3.244;2023-06-01T05:16:18;12.70;99.90
22813;DHT22;11573;51.334;3.244;2023-06-01T05:18:45;12.70;99.90
22813;DHT22;11573;51.334;3.244;2023-06-01T05:21:12;12.80;99.90
22813;DHT22;11573;51.334;3.244;2023-06-01T05:23:39;12.80;99.90
22813;DHT22;11573;51.334;3.244;2023-06-01T05:26:06;12.80;99.90
22813;DHT22;11573;51.334;3.244;2023-06-01T05:28:34;12.90;99.90
22813;DHT22;11573;51.334;3.244;2023-06-01T05:31:05;13.00;99.90
22813;DHT22;11573;51.334;3.244;2023-06-01T05:33:38;13.20;99.90
22813;DHT22;11573;51.334;3.244;2023-06-01T05:36:06;13.40;99.90
22813;DHT22;11573;51.334;3.244;2023-06-01T05:38:33;13.50;99.90
22813;DHT22;11573;51.334;3.244;2023-06-01T05:41:00;13.50;99.90
22813;DHT22;11573;51.334;3.244;2023-06-01T05:43:28;13.40;99.90
22813;DHT22;11573;51.334;3.244;2023-06-01T05:45:57;13.30;99.90
22813;DHT22;11573;51.334;3.244;2023-06-01T05:48:24;13.20;99.90
22813;DHT22;11573;51.334;3.244;2023-06-01T05:50:53;13.30;99.90
22813;DHT22;11573;51.334;3.244;2023-06-01T05:53:21;13.30;99.90
22813;DHT22;11573;51.334;3.244;2023-06-01T05:55:51;13.30;99.90
22813;DHT22;11573;51.334;3.244;2023-06-01T05:58:19;13.30;99.90
22813;DHT22;11573;51.334;3.244;2023-06-01T06:00:46;13.30;99.90
22813;DHT22;11573;51.334;3.244;2023-06-01T06:03:13;13.30;99.90
22813;DHT22;11573;51.334;3.244;2023-06-01T06:05:40;13.20;99.90
22813;DHT22;11573;51.334;3.244;2023-06-01T06:08:07;13.40;99.90
22813;DHT22;11573;51.334;3.244;2023-06-01T06:10:34;13.40;99.90
22813;DHT22;11573;51.334;3.244;2023-06-01T06:13:01;13.40;99.90
22813;DHT22;11573;51.334;3.244;2023-06-01T06:15:28;13.30;99.90
22813;DHT22;11573;51.334;3.244;2023-06-01T06:17:56;13.40;99.90
22813;DHT22;11573;51.334;3.244;2023-06-01T06:20:23;13.30;99.90
22813;DHT22;11573;51.334;3.244;2023-06-01T06:22:51;13.50;99.90
22813;DHT22;11573;51.334;3.244;2023-06-01T06:25:19;13.60;99.90
22813;DHT22;11573;51.334;3.244;2023-06-01T06:27:46;13.50;99.90
22813;DHT22;11573;51.334;3.244;2023-06-01T06:30:14;13.50;99.90
22813;DHT22;11573;51.334;3.244;2023-06-01T06:32:41;13.40;99.90
22813;DHT22;11573;51.334;3.244;2023-06-01T06:35:08;13.40;99.90
22813;DHT22;11573;51.334;3.244;2023-06-01T06:37:40;13.40;99.90
22813;DHT22;11573;51.334;3.244;2023-06-01T06:40:08;13.30;99.90
22813;DHT22;11573;51.334;3.244;2023-06-01T06:42:35;13.40;99.90
22813;DHT22;11573;51.334;3.244;2023-06-01T06:45:02;13.40;99.90
22813;DHT22;11573;51.334;3.244;2023-06-01T06:47:31;13.50;99.90
22813;DHT22;11573;51.334;3.244;2023-06-01T06:49:59;13.60;99.90
22813;DHT22;11573;51.334;3.244;2023-06-01T06:52:26;13.70;99.90
22813;DHT22;11573;51.334;3.244;2023-06-01T06:54:53;14.00;99.90
22813;DHT22;11573;51.334;3.244;2023-06-01T06:57:20;14.20;99.90
22813;DHT22;11573;51.334;3.244;2023-06-01T06:59:47;14.60;99.90
22813;DHT22;11573;51.334;3.244;2023-06-01T07:02:14;14.70;99.90
22813;DHT22;11573;51.334;3.244;2023-06-01T07:04:41;14.80;99.90
22813;DHT22;11573;51.334;3.244;2023-06-01T07:07:08;14.80;99.90
22813;DHT22;11573;51.334;3.244;2023-06-01T07:09:35;14.60;99.90
22813;DHT22;11573;51.334;3.244;2023-06-01T07:12:03;14.50;99.90
22813;DHT22;11573;51.334;3.244;2023-06-01T07:14:29;14.40;99.90
22813;DHT22;11573;51.334;3.244;2023-06-01T07:16:57;14.20;99.90
22813;DHT22;11573;51.334;3.244;2023-06-01T07:19:24;14.30;99.90
22813;DHT22;11573;51.334;3.244;2023-06-01T07:21:50;14.50;99.90
22813;DHT22;11573;51.334;3.244;2023-06-01T07:24:18;14.70;99.90
22813;DHT22;11573;51.334;3.244;2023-06-01T07:26:46;14.70;99.90
22813;DHT22;11573;51.334;3.244;2023-06-01T07:29:13;15.00;99.90
22813;DHT22;11573;51.334;3.244;2023-06-01T07:31:41;15.20;99.90
22813;DHT22;11573;51.334;3.244;2023-06-01T07:34:08;15.40;99.90
22813;DHT22;11573;51.334;3.244;2023-06-01T07:36:35;15.60;99.90
22813;DHT22;11573;51.334;3.244;2023-06-01T07:39:04;15.70;99.90
22813;DHT22;11573;51.334;3.244;2023-06-01T07:41:35;15.50;99.90
22813;DHT22;11573;51.334;3.244;2023-06-01T07:44:02;15.40;99.90
22813;DHT22;11573;51.334;3.244;2023-06-01T07:46:29;15.30;99.90
22813;DHT22;11573;51.334;3.244;2023-06-01T07:48:57;15.50;99.90
22813;DHT22;11573;51.334;3.244;2023-06-01T07:51:24;15.80;99.90
22813;DHT22;11573;51.334;3.244;2023-06-01T07:53:51;15.70;99.90
22813;DHT22;11573;51.334;3.244;2023-06-01T07:56:18;15.70;99.90
22813;DHT22;11573;51.334;3.244;2023-06-01T07:58:45;15.50;99.90
22813;DHT22;11573;51.334;3.244;2023-06-01T08:01:12;15.30;99.90
22813;DHT22;11573;51.334;3.244;2023-06-01T08:03:42;15.40;99.90
22813;DHT22;11573;51.334;3.244;2023-06-01T08:06:10;15.60;99.90
22813;DHT22;11573;51.334;3.244;2023-06-01T08:08:38;15.40;99.90
22813;DHT22;11573;51.334;3.244;2023-06-01T08:11:06;15.20;99.90
22813;DHT22;11573;51.334;3.244;2023-06-01T08:13:34;15.40;99.90
22813;DHT22;11573;51.334;3.244;2023-06-01T08:16:03;15.70;99.90
22813;DHT22;11573;51.334;3.244;2023-06-01T08:18:31;15.80;99.90
22813;DHT22;11573;51.334;3.244;2023-06-01T08:20:58;15.50;99.90
22813;DHT22;11573;51.334;3.244;2023-06-01T08:23:27;15.30;99.90
22813;DHT22;11573;51.334;3.244;2023-06-01T08:25:54;15.10;99.90
22813;DHT22;11573;51.334;3.244;2023-06-01T08:28:21;15.40;99.90
22813;DHT22;11573;51.334;3.244;2023-06-01T08:30:48;15.40;99.90
22813;DHT22;11573;51.334;3.244;2023-06-01T08:33:15;15.70;99.90
22813;DHT22;11573;51.334;3.244;2023-06-01T08:35:42;15.70;99.90
22813;DHT22;11573;51.334;3.244;2023-06-01T08:38:10;15.80;99.90
22813;DHT22;11573;51.334;3.244;2023-06-01T08:40:37;15.90;99.90
22813;DHT22;11573;51.334;3.244;2023-06-01T08:43:18;16.00;99.90
22813;DHT22;11573;51.334;3.244;2023-06-01T08:45:46;16.00;99.90
22813;DHT22;11573;51.334;3.244;2023-06-01T08:48:18;16.00;99.90
22813;DHT22;11573;51.334;3.244;2023-06-01T08:50:50;16.00;99.90
22813;DHT22;11573;51.334;3.244;2023-06-01T08:53:18;16.10;99.90
22813;DHT22;11573;51.334;3.244;2023-06-01T08:55:52;16.00;99.90
22813;DHT22;11573;51.334;3.244;2023-06-01T08:58:20;15.80;99.90
22813;DHT22;11573;51.334;3.244;2023-06-01T09:00:50;15.80;99.90
22813;DHT22;11573;51.334;3.244;2023-06-01T09:03:18;15.60;99.90
22813;DHT22;11573;51.334;3.244;2023-06-01T09:05:45;15.60;99.90
22813;DHT22;11573;51.334;3.244;2023-06-01T09:08:12;15.60;99.90
22813;DHT22;11573;51.334;3.244;2023-06-01T09:10:40;15.80;99.90
22813;DHT22;11573;51.334;3.244;2023-06-01T09:13:07;15.60;99.90
22813;DHT22;11573;51.334;3.244;2023-06-01T09:15:34;15.50;99.90
22813;DHT22;11573;51.334;3.244;2023-06-01T09:18:06;15.30;99.90
22813;DHT22;11573;51.334;3.244;2023-06-01T09:20:34;15.30;99.90
22813;DHT22;11573;51.334;3.244;2023-06-01T09:23:04;15.40;99.90
22813;DHT22;11573;51.334;3.244;2023-06-01T09:25:32;15.30;99.90
22813;DHT22;11573;51.334;3.244;2023-06-01T09:28:00;15.40;99.90
22813;DHT22;11573;51.334;3.244;2023-06-01T09:30:42;15.30;99.90
22813;DHT22;11573;51.334;3.244;2023-06-01T09:33:14;15.40;99.90
22813;DHT22;11573;51.334;3.244;2023-06-01T09:35:44;15.30;99.90
22813;DHT22;11573;51.334;3.244;2023-06-01T09:38:19;15.20;99.90
22813;DHT22;11573;51.334;3.244;2023-06-01T09:40:56;15.30;99.90
22813;DHT22;11573;51.334;3.244;2023-06-01T09:43:24;15.30;99.90
22813;DHT22;11573;51.334;3.244;2023-06-01T09:48:30;15.20;99.90
22813;DHT22;11573;51.334;3.244;2023-06-01T09:50:58;15.10;99.90
22813;DHT22;11573;51.334;3.244;2023-06-01T09:53:39;15.20;99.90
22813;DHT22;11573;51.334;3.244;2023-06-01T09:56:06;15.10;99.90
22813;DHT22;11573;51.334;3.244;2023-06-01T09:58:33;15.10;99.90
22813;DHT22;11573;51.334;3.244;2023-06-01T10:01:06;15.00;99.90
22813;DHT22;11573;51.334;3.244;2023-06-01T10:03:42;15.10;99.90
22813;DHT22;11573;51.334;3.244;2023-06-01T10:06:14;14.90;99.90
22813;DHT22;11573;51.334;3.244;2023-06-01T10:08:42;15.10;99.90
22813;DHT22;11573;51.334;3.244;2023-06-01T10:11:10;15.20;99.90
22813;DHT22;11573;51.334;3.244;2023-06-01T10:13:37;15.40;99.90
22813;DHT22;11573;51.334;3.244;2023-06-01T10:16:04;15.10;99.90
22813;DHT22;11573;51.334;3.244;2023-06-01T10:18:32;15.30;99.90
22813;DHT22;11573;51.334;3.244;2023-06-01T10:20:59;15.40;99.90
22813;DHT22;11573;51.334;3.244;2023-06-01T10:23:28;15.40;99.90
22813;DHT22;11573;51.334;3.244;2023-06-01T10:25:59;15.20;99.90
22813;DHT22;11573;51.334;3.244;2023-06-01T10:28:34;15.00;99.90
22813;DHT22;11573;51.334;3.244;2023-06-01T10:31:34;15.10;99.90
22813;DHT22;11573;51.334;3.244;2023-06-01T10:34:06;15.40;99.90
22813;DHT22;11573;51.334;3.244;2023-06-01T10:39:28;15.50;99.90
22813;DHT22;11573;51.334;3.244;2023-06-01T10:42:42;15.20;99.90
22813;DHT22;11573;51.334;3.244;2023-06-01T10:44:50;15.00;99.90
22813;DHT22;11573;51.334;3.244;2023-06-01T10:55:18;15.40;99.90
22813;DHT22;11573;51.334;3.244;2023-06-01T10:57:41;15.50;99.90
22813;DHT22;11573;51.334;3.244;2023-06-01T11:02:59;15.60;99.90
22813;DHT22;11573;51.334;3.244;2023-06-01T11:13:22;15.10;99.90
22813;DHT22;11573;51.334;3.244;2023-06-01T11:21:19;15.50;99.90
22813;DHT22;11573;51.334;3.244;2023-06-01T11:23:52;15.40;99.90
22813;DHT22;11573;51.334;3.244;2023-06-01T11:26:22;15.40;99.90
22813;DHT22;11573;51.334;3.244;2023-06-01T11:28:53;15.20;99.90
22813;DHT22;11573;51.334;3.244;2023-06-01T11:31:38;15.30;99.90
22813;DHT22;11573;51.334;3.244;2023-06-01T11:34:06;15.30;99.90
22813;DHT22;11573;51.334;3.244;2023-06-01T11:36:42;15.60;99.90
22813;DHT22;11573;51.334;3.244;2023-06-01T11:39:23;15.40;99.90
22813;DHT22;11573;51.334;3.244;2023-06-01T11:42:11;15.20;99.90
22813;DHT22;11573;51.334;3.244;2023-06-01T11:44:41;15.20;99.90
22813;DHT22;11573;51.334;3.244;2023-06-01T11:47:09;15.20;99.90
22813;DHT22;11573;51.334;3.244;2023-06-01T11:49:41;15.30;99.90
22813;DHT22;11573;51.334;3.244;2023-06-01T11:52:11;15.20;99.90
22813;DHT22;11573;51.334;3.244;2023-06-01T11:54:38;15.20;99.90
22813;DHT22;11573;51.334;3.244;2023-06-01T11:57:05;15.30;99.90
22813;DHT22;11573;51.334;3.244;2023-06-01T11:59:38;15.40;99.90
22813;DHT22;11573;51.334;3.244;2023-06-01T12:02:27;15.60;99.90
22813;DHT22;11573;51.334;3.244;2023-06-01T12:05:01;15.70;99.90
22813;DHT22;11573;51.334;3.244;2023-06-01T12:07:48;15.60;99.90
22813;DHT22;11573;51.334;3.244;2023-06-01T12:10:18;15.50;99.90
22813;DHT22;11573;51.334;3.244;2023-06-01T12:12:47;15.50;99.90
22813;DHT22;11573;51.334;3.244;2023-06-01T12:15:15;15.50;99.90
22813;DHT22;11573;51.334;3.244;2023-06-01T12:17:50;15.40;99.90
22813;DHT22;11573;51.334;3.244;2023-06-01T12:20:27;15.30;99.90
22813;DHT22;11573;51.334;3.244;2023-06-01T12:22:54;15.50;99.90
22813;DHT22;11573;51.334;3.244;2023-06-01T12:25:22;15.30;99.90
22813;DHT22;11573;51.334;3.244;2023-06-01T12:28:03;15.30;99.90
22813;DHT22;11573;51.334;3.244;2023-06-01T12:30:31;15.30;99.90
22813;DHT22;11573;51.334;3.244;2023-06-01T12:32:59;15.30;99.90
22813;DHT22;11573;51.334;3.244;2023-06-01T12:35:26;15.50;99.90
22813;DHT22;11573;51.334;3.244;2023-06-01T12:38:07;15.30;99.90
22813;DHT22;11573;51.334;3.244;2023-06-01T12:40:37;15.40;99.90
22813;DHT22;11573;51.334;3.244;2023-06-01T12:43:06;15.50;99.90
22813;DHT22;11573;51.334;3.244;2023-06-01T12:45:43;15.30;99.90
22813;DHT22;11573;51.334;3.244;2023-06-01T12:48:33;15.40;99.90
22813;DHT22;11573;51.334;3.244;2023-06-01T12:51:01;15.50;99.90
22813;DHT22;11573;51.334;3.244;2023-06-01T12:53:29;15.30;99.90
22813;DHT22;11573;51.334;3.244;2023-06-01T12:55:56;15.30;99.90
22813;DHT22;11573;51.334;3.244;2023-06-01T12:58:24;15.50;99.90
22813;DHT22;11573;51.334;3.244;2023-06-01T13:00:51;15.70;99.90
22813;DHT22;11573;51.334;3.244;2023-06-01T13:03:38;15.60;99.90
22813;DHT22;11573;51.334;3.244;2023-06-01T13:06:05;15.30;99.90
22813;DHT22;11573;51.334;3.244;2023-06-01T13:08:32;15.40;99.90
22813;DHT22;11573;51.334;3.244;2023-06-01T13:10:59;15.50;99.90
22813;DHT22;11573;51.334;3.244;2023-06-01T13:13:27;15.60;99.90
22813;DHT22;11573;51.334;3.244;2023-06-01T13:15:54;15.50;99.90
22813;DHT22;11573;51.334;3.244;2023-06-01T13:18:21;15.40;99.90
22813;DHT22;11573;51.334;3.244;2023-06-01T13:20:48;15.40;99.90
22813;DHT22;11573;51.334;3.244;2023-06-01T13:23:15;15.40;99.90
22813;DHT22;11573;51.334;3.244;2023-06-01T13:25:43;15.30;99.90
22813;DHT22;11573;51.334;3.244;2023-06-01T13:28:10;15.30;99.90
22813;DHT22;11573;51.334;3.244;2023-06-01T13:30:39;15.30;99.90
22813;DHT22;11573;51.334;3.244;2023-06-01T13:33:06;15.30;99.90
22813;DHT22;11573;51.334;3.244;2023-06-01T13:35:33;15.30;99.90
22813;DHT22;11573;51.334;3.244;2023-06-01T13:38:00;15.20;99.90
22813;DHT22;11573;51.334;3.244;2023-06-01T13:40:27;15.40;99.90
22813;DHT22;11573;51.334;3.244;2023-06-01T13:42:54;15.40;99.90
22813;DHT22;11573;51.334;3.244;2023-06-01T13:45:22;15.20;99.90
22813;DHT22;11573;51.334;3.244;2023-06-01T13:47:49;15.30;99.90
22813;DHT22;11573;51.334;3.244;2023-06-01T13:50:17;15.30;99.90
22813;DHT22;11573;51.334;3.244;2023-06-01T13:52:44;15.20;99.90
22813;DHT22;11573;51.334;3.244;2023-06-01T13:55:12;15.20;99.90
22813;DHT22;11573;51.334;3.244;2023-06-01T13:57:40;15.40;99.90
22813;DHT22;11573;51.334;3.244;2023-06-01T14:00:08;15.70;99.90
22813;DHT22;11573;51.334;3.244;2023-06-01T14:02:42;15.70;99.90
22813;DHT22;11573;51.334;3.244;2023-06-01T14:05:09;15.90;99.90
22813;DHT22;11573;51.334;3.244;2023-06-01T14:07:45;16.00;99.90
22813;DHT22;11573;51.334;3.244;2023-06-01T14:10:12;16.00;99.90
22813;DHT22;11573;51.334;3.244;2023-06-01T14:12:41;15.90;99.90
22813;DHT22;11573;51.334;3.244;2023-06-01T14:15:08;16.00;99.90
22813;DHT22;11573;51.334;3.244;2023-06-01T14:17:35;16.20;99.90
22813;DHT22;11573;51.334;3.244;2023-06-01T14:20:03;16.00;99.90
22813;DHT22;11573;51.334;3.244;2023-06-01T14:22:30;15.90;99.90
22813;DHT22;11573;51.334;3.244;2023-06-01T14:24:56;16.00;99.90
22813;DHT22;11573;51.334;3.244;2023-06-01T14:27:23;16.10;99.90
22813;DHT22;11573;51.334;3.244;2023-06-01T14:29:50;16.30;99.90
22813;DHT22;11573;51.334;3.244;2023-06-01T14:32:17;16.30;99.90
22813;DHT22;11573;51.334;3.244;2023-06-01T14:34:44;16.30;99.90
22813;DHT22;11573;51.334;3.244;2023-06-01T14:37:12;16.20;99.90
22813;DHT22;11573;51.334;3.244;2023-06-01T14:39:40;16.20;99.90
22813;DHT22;11573;51.334;3.244;2023-06-01T14:42:07;16.20;99.90
22813;DHT22;11573;51.334;3.244;2023-06-01T14:44:34;16.00;99.90
22813;DHT22;11573;51.334;3.244;2023-06-01T14:47:02;15.80;99.90
22813;DHT22;11573;51.334;3.244;2023-06-01T14:49:29;15.90;99.90
22813;DHT22;11573;51.334;3.244;2023-06-01T14:52:12;16.00;99.90
22813;DHT22;11573;51.334;3.244;2023-06-01T14:54:39;16.40;99.90
22813;DHT22;11573;51.334;3.244;2023-06-01T14:57:06;16.30;99.90
22813;DHT22;11573;51.334;3.244;2023-06-01T14:59:34;16.10;99.90
22813;DHT22;11573;51.334;3.244;2023-06-01T15:02:07;16.30;99.90
22813;DHT22;11573;51.334;3.244;2023-06-01T15:04:34;16.20;99.90
22813;DHT22;11573;51.334;3.244;2023-06-01T15:07:01;16.20;99.90
22813;DHT22;11573;51.334;3.244;2023-06-01T15:09:28;16.20;99.90
22813;DHT22;11573;51.334;3.244;2023-06-01T15:11:55;16.30;99.90
22813;DHT22;11573;51.334;3.244;2023-06-01T15:14:23;16.30;99.90
22813;DHT22;11573;51.334;3.244;2023-06-01T15:16:50;16.10;99.90
22813;DHT22;11573;51.334;3.244;2023-06-01T15:19:17;16.00;99.90
22813;DHT22;11573;51.334;3.244;2023-06-01T15:21:44;15.90;99.90
22813;DHT22;11573;51.334;3.244;2023-06-01T15:24:11;15.80;99.90
22813;DHT22;11573;51.334;3.244;2023-06-01T15:26:38;15.60;99.90
22813;DHT22;11573;51.334;3.244;2023-06-01T15:29:05;15.30;99.90
22813;DHT22;11573;51.334;3.244;2023-06-01T15:31:32;15.30;99.90
22813;DHT22;11573;51.334;3.244;2023-06-01T15:33:59;15.10;99.90
22813;DHT22;11573;51.334;3.244;2023-06-01T15:36:26;15.00;99.90
22813;DHT22;11573;51.334;3.244;2023-06-01T15:38:53;14.90;99.90
22813;DHT22;11573;51.334;3.244;2023-06-01T15:41:20;15.00;99.90
22813;DHT22;11573;51.334;3.244;2023-06-01T15:43:48;14.70;99.90
22813;DHT22;11573;51.334;3.244;2023-06-01T15:46:15;14.60;99.90
22813;DHT22;11573;51.334;3.244;2023-06-01T15:48:43;14.60;99.90
22813;DHT22;11573;51.334;3.244;2023-06-01T15:51:10;14.60;99.90
22813;DHT22;11573;51.334;3.244;2023-06-01T15:53:37;14.80;99.90
22813;DHT22;11573;51.334;3.244;2023-06-01T15:56:04;14.90;99.90
22813;DHT22;11573;51.334;3.244;2023-06-01T15:58:31;14.90;99.90
22813;DHT22;11573;51.334;3.244;2023-06-01T16:00:58;15.00;99.90
22813;DHT22;11573;51.334;3.244;2023-06-01T16:03:44;15.10;99.90
22813;DHT22;11573;51.334;3.244;2023-06-01T16:06:12;15.10;99.90
22813;DHT22;11573;51.334;3.244;2023-06-01T16:08:39;15.10;99.90
22813;DHT22;11573;51.334;3.244;2023-06-01T16:11:05;15.10;99.90
22813;DHT22;11573;51.334;3.244;2023-06-01T16:13:33;15.10;99.90
22813;DHT22;11573;51.334;3.244;2023-06-01T16:16:00;15.00;99.90
22813;DHT22;11573;51.334;3.244;2023-06-01T16:18:27;15.10;99.90
22813;DHT22;11573;51.334;3.244;2023-06-01T16:20:54;15.30;99.90
22813;DHT22;11573;51.334;3.244;2023-06-01T16:23:21;15.30;99.90
22813;DHT22;11573;51.334;3.244;2023-06-01T16:25:48;15.00;99.90